Flugplatz Pirna-Pratzschwitz

Für EDAR sind keine METAR/TAF Berichte vorhanden.
Es werden die Flugwettermeldungen vom Flugplatz Dresden in 19 km Entfernung angezeigt.

Bericht für EDDC

vom 31.05. um 10:20 UTC

Wind 12 kt aus 300°

Sichtweite 10 km oder mehr

gering bewölkt in 2200 ft

Temperatur 14.0°C

Taupunkt 8.0°C

Luftfeuchtigkeit 67%

Luftdruck 1020 hPa

keine wesentliche Wetteränderung innerhalb den nächsten 2 Stunden zu erwarten

EDDC 311020Z 30012KT 270V330 9999 FEW022 14/08 Q1020 NOSIG

Prognose für EDDC

vom 31.05. um 05:00 UTC

Zwischen 06:00 UTC und 07:00 UTC

Wind 5 kt aus 320°

Sichtweite 10 km oder mehr

keine signifikanten Wettererscheinungen

keine Wolken


Zwischen 07:00 und 09:00 UTC übergehend zu

Wind 10 kt aus 330°

Sichtweite 10 km oder mehr

keine signifikanten Wettererscheinungen

keine Wolken


Zwischen 17:00 und 19:00 UTC übergehend zu

Wind 4 kt aus 350°

Sichtweite 10 km oder mehr

keine signifikanten Wettererscheinungen

keine Wolken

TAF EDDC 310500Z 3106/0106 32005KT CAVOK BECMG 3107/3109 33010KT BECMG 3117/3119 35004KT
Impressum